createdAt,value
2018-04-30T00:01:58.646Z,10.98
2018-04-30T00:05:01.966Z,10.96
2018-04-30T00:08:05.279Z,10.94
2018-04-30T00:11:09.382Z,10.96
2018-04-30T00:14:12.693Z,10.93
2018-04-30T00:17:16.760Z,10.92
2018-04-30T00:20:20.072Z,10.86
2018-04-30T00:23:23.400Z,10.90
2018-04-30T00:26:27.471Z,10.86
2018-04-30T00:29:30.780Z,10.83
2018-04-30T00:32:34.105Z,10.81
2018-04-30T00:35:38.164Z,10.77
2018-04-30T00:38:41.495Z,10.74
2018-04-30T00:41:44.796Z,10.78
2018-04-30T00:44:48.118Z,10.78
2018-04-30T00:47:52.185Z,10.75
2018-04-30T00:50:55.532Z,10.78
2018-04-30T00:53:59.589Z,10.80
2018-04-30T00:57:02.917Z,10.76
2018-04-30T01:00:06.222Z,10.78
2018-04-30T01:03:10.306Z,10.80
2018-04-30T01:06:13.607Z,10.81
2018-04-30T01:09:16.937Z,10.87
2018-04-30T01:12:21.000Z,10.88
2018-04-30T01:15:24.329Z,10.86
2018-04-30T01:18:27.625Z,10.89
2018-04-30T01:21:30.950Z,10.92
2018-04-30T01:24:34.250Z,10.93
2018-04-30T01:27:37.569Z,10.90
2018-04-30T01:30:40.880Z,10.87
2018-04-30T01:33:44.177Z,10.83
2018-04-30T01:36:47.508Z,10.83
2018-04-30T01:39:51.577Z,10.83
2018-04-30T01:42:54.887Z,10.84
2018-04-30T01:45:58.201Z,10.80
2018-04-30T01:49:01.507Z,10.76
2018-04-30T01:52:04.830Z,10.71
2018-04-30T01:55:08.129Z,10.72
2018-04-30T01:58:11.457Z,10.69
2018-04-30T02:01:14.757Z,10.71
2018-04-30T02:04:18.081Z,10.73
2018-04-30T02:07:21.382Z,10.73
2018-04-30T02:10:24.705Z,10.74
2018-04-30T02:13:28.001Z,10.75
2018-04-30T02:16:31.334Z,10.75
2018-04-30T02:19:34.629Z,10.70
2018-04-30T02:22:37.937Z,10.72
2018-04-30T02:25:41.253Z,10.67
2018-04-30T02:28:44.553Z,10.72
2018-04-30T02:31:47.874Z,10.75
2018-04-30T02:34:51.945Z,10.73
2018-04-30T02:37:55.275Z,10.65
2018-04-30T02:40:59.346Z,10.67
2018-04-30T02:44:02.652Z,10.66
2018-04-30T02:47:05.981Z,10.68
2018-04-30T02:50:10.049Z,10.66
2018-04-30T02:53:13.361Z,10.65
2018-04-30T02:56:16.661Z,10.65
2018-04-30T02:59:20.001Z,10.64
2018-04-30T03:02:24.064Z,10.65
2018-04-30T03:05:27.389Z,10.64
2018-04-30T03:08:30.691Z,10.65
2018-04-30T03:11:34.011Z,10.65
2018-04-30T03:14:37.312Z,10.67
2018-04-30T03:17:40.633Z,10.69
2018-04-30T03:20:43.930Z,10.66
2018-04-30T03:23:48.017Z,10.68
2018-04-30T03:26:51.346Z,10.71
2018-04-30T03:29:54.712Z,10.72
2018-04-30T03:32:58.087Z,10.71
2018-04-30T03:36:02.317Z,10.73
2018-04-30T03:39:06.394Z,10.71
2018-04-30T03:42:09.729Z,10.68
2018-04-30T03:45:13.801Z,10.64
2018-04-30T03:48:17.140Z,10.67
2018-04-30T03:51:21.216Z,10.74
2018-04-30T03:54:24.654Z,10.75
2018-04-30T03:57:27.965Z,10.76
2018-04-30T04:00:49.040Z,10.77
2018-04-30T04:04:09.961Z,10.78
2018-04-30T04:07:13.301Z,10.82
2018-04-30T04:10:16.605Z,10.79
2018-04-30T04:13:19.944Z,10.81
2018-04-30T04:16:23.253Z,10.82
2018-04-30T04:19:27.351Z,10.89
2018-04-30T04:22:30.662Z,10.90
2018-04-30T04:25:34.833Z,10.88
2018-04-30T04:28:38.222Z,10.93
2018-04-30T04:31:41.513Z,10.93
2018-04-30T04:34:44.828Z,10.90
2018-04-30T04:37:48.177Z,10.95
2018-04-30T04:40:52.265Z,11.03
2018-04-30T04:43:55.597Z,11.12
2018-04-30T04:46:58.905Z,11.20
2018-04-30T04:50:02.219Z,11.24
2018-04-30T04:53:05.522Z,11.24
2018-04-30T04:56:08.833Z,11.26
2018-04-30T04:59:12.139Z,11.19
2018-04-30T05:02:15.497Z,11.18
2018-04-30T05:05:19.536Z,11.17
2018-04-30T05:08:22.886Z,11.14
2018-04-30T05:11:26.196Z,11.18
2018-04-30T05:14:29.511Z,11.21
2018-04-30T05:17:32.817Z,11.26
2018-04-30T05:20:36.130Z,11.24
2018-04-30T05:23:39.445Z,11.25
2018-04-30T05:26:43.521Z,11.29
2018-04-30T05:29:46.858Z,11.26
2018-04-30T05:32:50.942Z,11.34
2018-04-30T05:35:54.265Z,11.33
2018-04-30T05:38:58.340Z,11.24
2018-04-30T05:42:01.677Z,11.09
2018-04-30T05:45:05.750Z,10.98
2018-04-30T05:48:09.168Z,10.89
2018-04-30T05:51:13.161Z,10.87
2018-04-30T05:54:16.485Z,10.81
2018-04-30T05:57:19.785Z,10.81
2018-04-30T06:00:23.106Z,10.73
2018-04-30T06:03:27.174Z,10.67
2018-04-30T06:06:30.498Z,10.62
2018-04-30T06:09:33.799Z,10.57
2018-04-30T06:12:37.128Z,10.58
2018-04-30T06:15:40.430Z,10.51
2018-04-30T06:18:43.756Z,10.52
2018-04-30T06:21:47.060Z,10.52
2018-04-30T06:24:52.008Z,10.51
2018-04-30T06:27:56.109Z,10.54
2018-04-30T06:30:59.446Z,10.55
2018-04-30T06:34:03.517Z,10.57
2018-04-30T06:37:06.833Z,10.59
2018-04-30T06:40:11.086Z,10.57
2018-04-30T06:43:14.393Z,10.62
2018-04-30T06:46:17.708Z,10.60
2018-04-30T06:49:21.009Z,10.60
2018-04-30T06:52:24.352Z,10.64
2018-04-30T06:55:28.422Z,10.73
2018-04-30T06:58:31.773Z,10.80
2018-04-30T07:01:35.844Z,10.97
2018-04-30T07:04:39.161Z,11.10
2018-04-30T07:07:43.249Z,11.13
2018-04-30T07:10:46.562Z,11.14
2018-04-30T07:13:49.881Z,11.21
2018-04-30T07:16:53.963Z,11.22
2018-04-30T07:19:57.342Z,11.25
2018-04-30T07:23:01.370Z,11.25
2018-04-30T07:26:04.697Z,11.19
2018-04-30T07:29:08.005Z,11.21
2018-04-30T07:32:12.101Z,11.18
2018-04-30T07:35:15.415Z,11.16
2018-04-30T07:38:19.497Z,11.10
2018-04-30T07:41:22.818Z,11.08
2018-04-30T07:44:26.128Z,11.08
2018-04-30T07:47:30.205Z,10.81
2018-04-30T07:50:33.505Z,10.57
2018-04-30T07:53:36.820Z,10.54
2018-04-30T07:56:40.888Z,10.60
2018-04-30T07:59:44.229Z,10.58
2018-04-30T08:02:47.537Z,10.54
2018-04-30T08:05:51.618Z,10.49
2018-04-30T08:08:54.929Z,10.35
2018-04-30T08:11:58.248Z,10.29
2018-04-30T08:15:02.314Z,10.22
2018-04-30T08:18:05.649Z,10.22
2018-04-30T08:21:09.717Z,10.27
2018-04-30T08:24:13.040Z,10.36
2018-04-30T08:27:16.345Z,10.39
2018-04-30T08:30:19.665Z,10.41
2018-04-30T08:33:23.733Z,10.40
2018-04-30T08:36:27.046Z,10.42
2018-04-30T08:39:30.351Z,10.49
2018-04-30T08:42:33.677Z,10.50
2018-04-30T08:45:36.988Z,10.53
2018-04-30T08:48:40.308Z,10.53
2018-04-30T08:51:43.609Z,10.57
2018-04-30T08:54:46.934Z,10.72
2018-04-30T08:57:50.237Z,11.06
2018-04-30T09:00:53.560Z,11.29
2018-04-30T09:03:56.868Z,11.43
2018-04-30T09:07:00.203Z,11.53
2018-04-30T09:10:03.505Z,11.59
2018-04-30T09:13:06.841Z,11.65
2018-04-30T09:16:10.145Z,11.71
2018-04-30T09:19:13.468Z,11.81
2018-04-30T09:22:17.874Z,11.86
2018-04-30T09:25:21.202Z,11.85
2018-04-30T09:28:24.502Z,11.85
2018-04-30T09:31:27.834Z,11.84
2018-04-30T09:34:31.902Z,11.81
2018-04-30T09:37:35.229Z,11.80
2018-04-30T09:40:38.537Z,11.95
2018-04-30T09:43:42.625Z,12.12
2018-04-30T09:46:45.937Z,12.25
2018-04-30T09:49:49.277Z,12.35
2018-04-30T09:52:52.584Z,12.36
2018-04-30T09:55:55.918Z,12.32
2018-04-30T09:58:59.217Z,12.32
2018-04-30T10:02:02.546Z,12.30
2018-04-30T10:05:06.613Z,12.35
2018-04-30T10:08:09.959Z,12.30
2018-04-30T10:11:13.265Z,12.28
2018-04-30T10:14:16.584Z,12.28
2018-04-30T10:17:19.890Z,12.21
2018-04-30T10:20:23.210Z,12.19
2018-04-30T10:23:26.610Z,12.09
2018-04-30T10:26:30.606Z,12.07
2018-04-30T10:29:33.931Z,12.03
2018-04-30T10:32:38.013Z,12.00
2018-04-30T10:35:41.352Z,12.00
2018-04-30T10:38:45.420Z,12.01
2018-04-30T10:41:48.758Z,11.94
2018-04-30T10:44:52.825Z,11.91
2018-04-30T10:47:56.145Z,11.92
2018-04-30T10:50:59.470Z,11.88
2018-04-30T10:54:03.541Z,11.87
2018-04-30T10:57:06.867Z,11.83
2018-04-30T11:00:10.173Z,11.84
2018-04-30T11:03:14.250Z,11.83
2018-04-30T11:06:17.573Z,11.80
2018-04-30T11:09:20.893Z,11.80
2018-04-30T11:12:24.227Z,11.83
2018-04-30T11:15:27.541Z,11.84
2018-04-30T11:18:30.869Z,11.85
2018-04-30T11:21:34.940Z,11.83
2018-04-30T11:24:38.276Z,11.85
2018-04-30T11:27:41.684Z,11.89
2018-04-30T11:30:44.949Z,11.90
2018-04-30T11:33:48.257Z,11.90
2018-04-30T11:36:52.361Z,11.82
2018-04-30T11:39:56.068Z,11.82
2018-04-30T11:42:59.411Z,11.83
2018-04-30T11:46:02.742Z,11.82
2018-04-30T11:49:06.093Z,11.78
2018-04-30T11:52:14.577Z,11.79
2018-04-30T11:55:18.025Z,11.78
2018-04-30T11:58:21.340Z,11.75
2018-04-30T12:01:24.685Z,11.73
2018-04-30T12:04:28.776Z,11.70
2018-04-30T12:07:32.103Z,11.68
2018-04-30T12:10:36.189Z,11.65
2018-04-30T12:13:39.546Z,11.64
2018-04-30T12:16:42.873Z,11.65
2018-04-30T12:19:51.773Z,11.67
2018-04-30T12:23:00.470Z,11.62
2018-04-30T12:26:06.221Z,11.59
2018-04-30T12:29:12.448Z,11.55
2018-04-30T12:32:15.961Z,11.57
2018-04-30T12:35:19.279Z,11.56
2018-04-30T12:38:23.390Z,11.56
2018-04-30T12:41:32.465Z,11.54
2018-04-30T12:44:36.614Z,11.51
2018-04-30T12:47:39.937Z,11.47
2018-04-30T12:50:44.077Z,11.40
2018-04-30T12:53:47.349Z,11.39
2018-04-30T12:56:51.466Z,11.41
2018-04-30T12:59:55.553Z,11.41
2018-04-30T13:02:58.885Z,11.40
2018-04-30T13:06:02.205Z,11.43
2018-04-30T13:09:06.274Z,11.44
2018-04-30T13:12:09.585Z,11.47
2018-04-30T13:15:12.905Z,11.51
2018-04-30T13:18:16.237Z,11.59
2018-04-30T13:21:19.546Z,11.63
2018-04-30T13:24:22.869Z,11.67
2018-04-30T13:27:26.169Z,11.67
2018-04-30T13:30:30.265Z,11.66
2018-04-30T13:33:33.569Z,11.67
2018-04-30T13:36:36.894Z,11.66
2018-04-30T13:39:40.197Z,11.62
2018-04-30T13:42:43.529Z,11.59
2018-04-30T13:45:46.829Z,11.59
2018-04-30T13:48:50.154Z,11.61
2018-04-30T13:51:53.458Z,11.65
2018-04-30T13:54:57.573Z,11.68
2018-04-30T13:58:01.647Z,11.68
2018-04-30T14:01:04.965Z,11.69
2018-04-30T14:04:08.271Z,11.77
2018-04-30T14:07:11.614Z,11.86
2018-04-30T14:10:14.913Z,11.92
2018-04-30T14:13:18.229Z,12.01
2018-04-30T14:16:21.537Z,12.07
2018-04-30T14:19:24.857Z,12.20
2018-04-30T14:22:28.158Z,12.25
2018-04-30T14:25:32.236Z,12.41
2018-04-30T14:28:35.553Z,12.44
2018-04-30T14:31:38.899Z,12.50
2018-04-30T14:34:42.194Z,12.57
2018-04-30T14:37:45.519Z,12.69
2018-04-30T14:40:48.829Z,12.67
2018-04-30T14:43:52.150Z,12.75
2018-04-30T14:46:56.213Z,12.85
2018-04-30T14:50:00.307Z,12.91
2018-04-30T14:53:03.619Z,12.89
2018-04-30T14:56:06.930Z,12.96
2018-04-30T14:59:10.236Z,13.06
2018-04-30T15:02:13.571Z,13.05
2018-04-30T15:05:17.642Z,13.02
2018-04-30T15:08:20.958Z,13.05
2018-04-30T15:11:24.266Z,13.03
2018-04-30T15:14:27.579Z,12.98
2018-04-30T15:17:31.660Z,13.02
2018-04-30T15:20:34.969Z,12.99
2018-04-30T15:23:38.293Z,12.94
2018-04-30T15:26:42.361Z,12.93
2018-04-30T15:29:45.695Z,12.89
2018-04-30T15:32:49.773Z,12.83
2018-04-30T15:35:53.130Z,12.77
2018-04-30T15:38:56.429Z,12.72
2018-04-30T15:41:59.784Z,12.76
2018-04-30T15:45:03.151Z,12.86
2018-04-30T15:48:06.488Z,12.86
2018-04-30T15:51:10.568Z,12.88
2018-04-30T15:54:13.902Z,12.94
2018-04-30T15:57:17.972Z,12.99
2018-04-30T16:00:21.293Z,12.95
2018-04-30T16:03:24.604Z,12.93
2018-04-30T16:06:27.937Z,12.97
2018-04-30T16:09:31.241Z,13.01
2018-04-30T16:12:34.583Z,13.07
2018-04-30T16:15:37.887Z,13.10
2018-04-30T16:18:41.209Z,13.11
2018-04-30T16:21:44.513Z,13.09
2018-04-30T16:24:47.841Z,13.12
2018-04-30T16:27:51.146Z,13.23
2018-04-30T16:30:54.464Z,13.26
2018-04-30T16:33:57.760Z,13.31
2018-04-30T16:37:01.076Z,13.40
2018-04-30T16:40:05.141Z,13.53
2018-04-30T16:43:08.453Z,13.61
2018-04-30T16:46:11.745Z,13.67
2018-04-30T16:49:15.058Z,13.68
2018-04-30T16:52:18.356Z,13.73
2018-04-30T16:55:21.693Z,13.77
2018-04-30T16:58:25.014Z,13.80
2018-04-30T17:01:28.309Z,13.82
2018-04-30T17:04:31.627Z,13.86
2018-04-30T17:07:35.003Z,13.85
2018-04-30T17:10:38.363Z,13.87
2018-04-30T17:13:42.413Z,13.85
2018-04-30T17:16:45.728Z,13.91
2018-04-30T17:19:49.030Z,13.96
2018-04-30T17:22:52.340Z,13.92
2018-04-30T17:25:55.673Z,13.95
2018-04-30T17:28:58.986Z,13.96
2018-04-30T17:32:02.309Z,13.92
2018-04-30T17:35:05.614Z,13.93
2018-04-30T17:38:09.242Z,13.87
2018-04-30T17:41:13.343Z,13.85
2018-04-30T17:44:16.675Z,13.82
2018-04-30T17:47:19.970Z,13.73
2018-04-30T17:50:23.285Z,13.67
2018-04-30T17:53:26.597Z,13.62
2018-04-30T17:56:29.929Z,13.56
2018-04-30T17:59:33.237Z,13.49
2018-04-30T18:02:36.565Z,13.43
2018-04-30T18:05:39.875Z,13.38
2018-04-30T18:08:43.214Z,13.33
2018-04-30T18:11:46.659Z,13.26
2018-04-30T18:14:49.990Z,13.19
2018-04-30T18:17:53.321Z,13.13
2018-04-30T18:20:56.636Z,13.09
2018-04-30T18:23:59.987Z,13.06
2018-04-30T18:27:03.306Z,13.00
2018-04-30T18:30:07.406Z,13.00
2018-04-30T18:33:10.746Z,12.98
2018-04-30T18:36:14.839Z,12.97
2018-04-30T18:39:18.918Z,12.94
2018-04-30T18:42:22.234Z,12.90
2018-04-30T18:45:25.599Z,12.84
2018-04-30T18:48:28.885Z,12.80
2018-04-30T18:51:32.194Z,12.74
2018-04-30T18:54:35.513Z,12.67
2018-04-30T18:57:38.816Z,12.64
2018-04-30T19:00:42.125Z,12.63
2018-04-30T19:03:46.190Z,12.61
2018-04-30T19:06:49.521Z,12.60
2018-04-30T19:09:52.827Z,12.60
2018-04-30T19:12:56.921Z,12.65
2018-04-30T19:16:00.221Z,12.71
2018-04-30T19:19:03.541Z,12.82
2018-04-30T19:22:07.608Z,12.92
2018-04-30T19:25:10.917Z,13.03
2018-04-30T19:28:14.212Z,13.04
2018-04-30T19:31:17.526Z,13.02
2018-04-30T19:34:20.825Z,13.00
2018-04-30T19:37:24.154Z,12.95
2018-04-30T19:40:27.458Z,12.88
2018-04-30T19:43:30.781Z,12.83
2018-04-30T19:46:34.077Z,12.80
2018-04-30T19:49:37.458Z,12.74
2018-04-30T19:52:40.763Z,12.67
2018-04-30T19:55:44.073Z,12.59
2018-04-30T19:58:47.412Z,12.53
2018-04-30T20:01:50.719Z,12.47
2018-04-30T20:04:54.784Z,12.41
2018-04-30T20:07:58.094Z,12.32
2018-04-30T20:11:01.422Z,12.25
2018-04-30T20:14:04.728Z,12.15
2018-04-30T20:17:08.817Z,12.08
2018-04-30T20:20:12.126Z,12.00
2018-04-30T20:23:16.221Z,11.92
2018-04-30T20:26:19.535Z,11.84
2018-04-30T20:29:22.865Z,11.79
2018-04-30T20:32:26.160Z,11.74
2018-04-30T20:35:29.481Z,11.70
2018-04-30T20:38:32.785Z,11.68
2018-04-30T20:41:36.106Z,11.65
2018-04-30T20:44:39.413Z,11.60
2018-04-30T20:47:42.733Z,11.59
2018-04-30T20:50:46.037Z,11.57
2018-04-30T20:53:49.360Z,11.55
2018-04-30T20:56:52.666Z,11.52
2018-04-30T20:59:55.990Z,11.46
2018-04-30T21:02:59.297Z,11.40
2018-04-30T21:06:03.373Z,11.35
2018-04-30T21:09:13.190Z,11.30
2018-04-30T21:12:16.501Z,11.26
2018-04-30T21:15:19.813Z,11.24
2018-04-30T21:18:23.125Z,11.20
2018-04-30T21:21:26.433Z,11.17
2018-04-30T21:24:29.809Z,11.12
2018-04-30T21:27:33.841Z,11.11
2018-04-30T21:30:37.170Z,11.08
2018-04-30T21:33:40.478Z,11.05
2018-04-30T21:36:43.794Z,11.01
2018-04-30T21:39:47.102Z,10.98
2018-04-30T21:42:50.422Z,10.92
2018-04-30T21:45:53.710Z,10.87
2018-04-30T21:48:57.033Z,10.83
2018-04-30T21:52:01.099Z,10.80
2018-04-30T21:55:04.414Z,10.76
2018-04-30T21:58:07.932Z,10.71
2018-04-30T22:01:11.241Z,10.66
2018-04-30T22:04:15.306Z,10.60
2018-04-30T22:07:18.612Z,10.54
2018-04-30T22:10:21.933Z,10.46
2018-04-30T22:13:25.224Z,10.37
2018-04-30T22:16:28.528Z,10.28
2018-04-30T22:19:31.816Z,10.19
2018-04-30T22:22:35.149Z,10.11
2018-04-30T22:25:38.441Z,10.04
2018-04-30T22:28:42.505Z,9.99
2018-04-30T22:31:45.824Z,9.95
2018-04-30T22:34:49.108Z,9.94
2018-04-30T22:37:52.426Z,9.96
2018-04-30T22:40:56.476Z,9.97
2018-04-30T22:43:59.789Z,10.00
2018-04-30T22:47:03.087Z,10.02
2018-04-30T22:50:06.386Z,10.02
2018-04-30T22:53:09.681Z,10.00
2018-04-30T22:56:12.985Z,10.00
2018-04-30T22:59:16.293Z,10.04
2018-04-30T23:02:19.589Z,10.04
2018-04-30T23:05:22.912Z,10.04
2018-04-30T23:08:26.205Z,10.03
2018-04-30T23:11:30.280Z,10.00
2018-04-30T23:14:33.575Z,9.96
2018-04-30T23:17:36.881Z,9.90
2018-04-30T23:20:40.164Z,9.78
2018-04-30T23:23:43.477Z,9.72
2018-04-30T23:26:46.765Z,9.67
2018-04-30T23:29:50.085Z,9.62
2018-04-30T23:32:53.373Z,9.56
2018-04-30T23:35:56.685Z,9.52
2018-04-30T23:39:00.002Z,9.52
2018-04-30T23:42:03.297Z,9.52
2018-04-30T23:45:07.370Z,9.50
2018-04-30T23:48:10.657Z,9.48
2018-04-30T23:51:13.976Z,9.46
2018-04-30T23:54:17.260Z,9.46
2018-04-30T23:57:20.572Z,9.44
